sensor_id;sensor_type;location;lat;lon;timestamp;P1;durP1;ratioP1;P2;durP2;ratioP2
31734;SDS011;18313;48.518;9.124;2022-11-21T00:02:33;2.67;;;0.70;;
31734;SDS011;18313;48.518;9.124;2022-11-21T00:05:19;2.15;;;0.80;;
31734;SDS011;18313;48.518;9.124;2022-11-21T00:08:04;0.77;;;0.65;;
31734;SDS011;18313;48.518;9.124;2022-11-21T00:10:50;2.22;;;0.77;;
31734;SDS011;18313;48.518;9.124;2022-11-21T00:13:35;1.75;;;0.90;;
31734;SDS011;18313;48.518;9.124;2022-11-21T00:16:21;5.38;;;0.70;;
31734;SDS011;18313;48.518;9.124;2022-11-21T00:19:06;3.08;;;0.60;;
31734;SDS011;18313;48.518;9.124;2022-11-21T00:21:51;1.88;;;0.68;;
31734;SDS011;18313;48.518;9.124;2022-11-21T00:24:37;1.58;;;0.60;;
31734;SDS011;18313;48.518;9.124;2022-11-21T00:27:23;3.10;;;0.60;;
31734;SDS011;18313;48.518;9.124;2022-11-21T00:30:09;2.13;;;0.75;;
31734;SDS011;18313;48.518;9.124;2022-11-21T00:32:59;2.72;;;0.90;;
31734;SDS011;18313;48.518;9.124;2022-11-21T00:35:44;2.70;;;0.80;;
31734;SDS011;18313;48.518;9.124;2022-11-21T00:38:30;1.77;;;0.60;;
31734;SDS011;18313;48.518;9.124;2022-11-21T00:41:15;1.65;;;0.70;;
31734;SDS011;18313;48.518;9.124;2022-11-21T00:44:01;1.52;;;0.60;;
31734;SDS011;18313;48.518;9.124;2022-11-21T00:46:46;0.70;;;0.57;;
31734;SDS011;18313;48.518;9.124;2022-11-21T00:49:32;3.53;;;0.90;;
31734;SDS011;18313;48.518;9.124;2022-11-21T00:52:17;1.23;;;0.68;;
31734;SDS011;18313;48.518;9.124;2022-11-21T00:55:03;1.75;;;0.80;;
31734;SDS011;18313;48.518;9.124;2022-11-21T00:57:49;2.40;;;0.90;;
31734;SDS011;18313;48.518;9.124;2022-11-21T01:00:35;2.08;;;0.90;;
31734;SDS011;18313;48.518;9.124;2022-11-21T01:03:21;4.65;;;0.95;;
31734;SDS011;18313;48.518;9.124;2022-11-21T01:06:10;4.13;;;0.88;;
31734;SDS011;18313;48.518;9.124;2022-11-21T01:08:57;1.90;;;0.80;;
31734;SDS011;18313;48.518;9.124;2022-11-21T01:11:42;1.73;;;0.70;;
31734;SDS011;18313;48.518;9.124;2022-11-21T01:14:28;1.45;;;0.75;;
31734;SDS011;18313;48.518;9.124;2022-11-21T01:17:14;4.20;;;1.38;;
31734;SDS011;18313;48.518;9.124;2022-11-21T01:19:59;3.58;;;0.85;;
31734;SDS011;18313;48.518;9.124;2022-11-21T01:22:44;5.57;;;0.80;;
31734;SDS011;18313;48.518;9.124;2022-11-21T01:25:32;4.18;;;1.17;;
31734;SDS011;18313;48.518;9.124;2022-11-21T01:28:18;2.08;;;0.80;;
31734;SDS011;18313;48.518;9.124;2022-11-21T01:31:14;2.78;;;0.70;;
31734;SDS011;18313;48.518;9.124;2022-11-21T01:34:04;2.03;;;0.70;;
31734;SDS011;18313;48.518;9.124;2022-11-21T01:36:49;2.67;;;0.80;;
31734;SDS011;18313;48.518;9.124;2022-11-21T01:39:35;2.22;;;0.68;;
31734;SDS011;18313;48.518;9.124;2022-11-21T01:42:21;1.60;;;0.80;;
31734;SDS011;18313;48.518;9.124;2022-11-21T01:51:28;3.00;;;0.90;;
31734;SDS011;18313;48.518;9.124;2022-11-21T01:57:23;1.33;;;0.90;;
31734;SDS011;18313;48.518;9.124;2022-11-21T02:00:17;3.92;;;0.90;;
31734;SDS011;18313;48.518;9.124;2022-11-21T02:03:09;3.70;;;1.02;;
31734;SDS011;18313;48.518;9.124;2022-11-21T02:05:59;4.22;;;0.95;;
31734;SDS011;18313;48.518;9.124;2022-11-21T02:08:45;5.20;;;1.08;;
31734;SDS011;18313;48.518;9.124;2022-11-21T02:11:41;4.93;;;1.05;;
31734;SDS011;18313;48.518;9.124;2022-11-21T02:14:34;3.70;;;1.15;;
31734;SDS011;18313;48.518;9.124;2022-11-21T02:17:22;6.80;;;1.50;;
31734;SDS011;18313;48.518;9.124;2022-11-21T02:20:10;4.72;;;0.90;;
31734;SDS011;18313;48.518;9.124;2022-11-21T02:23:01;4.65;;;0.88;;
31734;SDS011;18313;48.518;9.124;2022-11-21T02:26:08;5.63;;;0.98;;
31734;SDS011;18313;48.518;9.124;2022-11-21T02:28:54;3.65;;;1.00;;
31734;SDS011;18313;48.518;9.124;2022-11-21T02:31:40;6.07;;;0.90;;
31734;SDS011;18313;48.518;9.124;2022-11-21T02:34:26;4.93;;;0.93;;
31734;SDS011;18313;48.518;9.124;2022-11-21T02:37:12;7.55;;;1.50;;
31734;SDS011;18313;48.518;9.124;2022-11-21T02:39:59;3.47;;;0.90;;
31734;SDS011;18313;48.518;9.124;2022-11-21T02:42:56;4.25;;;0.80;;
31734;SDS011;18313;48.518;9.124;2022-11-21T02:45:58;7.82;;;1.08;;
31734;SDS011;18313;48.518;9.124;2022-11-21T02:48:44;2.78;;;0.80;;
31734;SDS011;18313;48.518;9.124;2022-11-21T02:51:30;8.02;;;1.35;;
31734;SDS011;18313;48.518;9.124;2022-11-21T02:54:15;2.65;;;0.88;;
31734;SDS011;18313;48.518;9.124;2022-11-21T02:57:01;3.25;;;0.82;;
31734;SDS011;18313;48.518;9.124;2022-11-21T02:59:46;3.50;;;0.93;;
31734;SDS011;18313;48.518;9.124;2022-11-21T03:02:32;5.85;;;1.10;;
31734;SDS011;18313;48.518;9.124;2022-11-21T03:05:18;3.25;;;1.02;;
31734;SDS011;18313;48.518;9.124;2022-11-21T03:08:04;6.65;;;1.00;;
31734;SDS011;18313;48.518;9.124;2022-11-21T03:10:50;2.58;;;0.85;;
31734;SDS011;18313;48.518;9.124;2022-11-21T03:13:36;4.70;;;0.90;;
31734;SDS011;18313;48.518;9.124;2022-11-21T03:16:21;4.13;;;0.98;;
31734;SDS011;18313;48.518;9.124;2022-11-21T03:19:07;4.22;;;0.85;;
31734;SDS011;18313;48.518;9.124;2022-11-21T03:21:52;5.03;;;1.00;;
31734;SDS011;18313;48.518;9.124;2022-11-21T03:24:38;2.25;;;0.60;;
31734;SDS011;18313;48.518;9.124;2022-11-21T03:27:23;1.88;;;0.80;;
31734;SDS011;18313;48.518;9.124;2022-11-21T03:30:09;2.05;;;0.73;;
31734;SDS011;18313;48.518;9.124;2022-11-21T03:32:55;2.28;;;0.70;;
31734;SDS011;18313;48.518;9.124;2022-11-21T03:35:41;3.97;;;1.77;;
31734;SDS011;18313;48.518;9.124;2022-11-21T03:38:27;1.02;;;0.50;;
31734;SDS011;18313;48.518;9.124;2022-11-21T03:41:12;0.85;;;0.50;;
31734;SDS011;18313;48.518;9.124;2022-11-21T03:44:13;1.45;;;0.60;;
31734;SDS011;18313;48.518;9.124;2022-11-21T03:46:58;1.83;;;0.70;;
31734;SDS011;18313;48.518;9.124;2022-11-21T03:49:44;2.97;;;0.73;;
31734;SDS011;18313;48.518;9.124;2022-11-21T03:52:29;0.80;;;0.45;;
31734;SDS011;18313;48.518;9.124;2022-11-21T03:55:15;2.47;;;0.47;;
31734;SDS011;18313;48.518;9.124;2022-11-21T03:58:00;0.90;;;0.40;;
31734;SDS011;18313;48.518;9.124;2022-11-21T04:00:46;0.55;;;0.40;;
31734;SDS011;18313;48.518;9.124;2022-11-21T04:03:32;1.83;;;0.50;;
31734;SDS011;18313;48.518;9.124;2022-11-21T04:06:19;2.38;;;0.50;;
31734;SDS011;18313;48.518;9.124;2022-11-21T04:09:06;0.98;;;0.40;;
31734;SDS011;18313;48.518;9.124;2022-11-21T04:11:52;1.48;;;0.55;;
31734;SDS011;18313;48.518;9.124;2022-11-21T04:14:37;1.27;;;0.50;;
31734;SDS011;18313;48.518;9.124;2022-11-21T04:17:23;1.77;;;0.57;;
31734;SDS011;18313;48.518;9.124;2022-11-21T04:20:09;1.42;;;0.50;;
31734;SDS011;18313;48.518;9.124;2022-11-21T04:22:55;1.77;;;0.55;;
31734;SDS011;18313;48.518;9.124;2022-11-21T04:25:40;0.85;;;0.45;;
31734;SDS011;18313;48.518;9.124;2022-11-21T04:28:26;1.95;;;0.60;;
31734;SDS011;18313;48.518;9.124;2022-11-21T04:31:12;1.85;;;0.40;;
31734;SDS011;18313;48.518;9.124;2022-11-21T04:33:57;0.68;;;0.47;;
31734;SDS011;18313;48.518;9.124;2022-11-21T04:36:43;0.88;;;0.50;;
31734;SDS011;18313;48.518;9.124;2022-11-21T04:39:28;3.03;;;0.50;;
31734;SDS011;18313;48.518;9.124;2022-11-21T04:42:14;1.77;;;0.50;;
31734;SDS011;18313;48.518;9.124;2022-11-21T04:44:59;0.40;;;0.40;;
31734;SDS011;18313;48.518;9.124;2022-11-21T04:47:46;0.90;;;0.60;;
31734;SDS011;18313;48.518;9.124;2022-11-21T04:50:31;1.67;;;0.60;;
31734;SDS011;18313;48.518;9.124;2022-11-21T04:53:17;0.40;;;0.40;;
31734;SDS011;18313;48.518;9.124;2022-11-21T04:56:03;0.45;;;0.45;;
31734;SDS011;18313;48.518;9.124;2022-11-21T04:58:50;1.02;;;0.45;;
31734;SDS011;18313;48.518;9.124;2022-11-21T05:01:37;0.40;;;0.40;;
31734;SDS011;18313;48.518;9.124;2022-11-21T05:04:22;1.10;;;0.50;;
31734;SDS011;18313;48.518;9.124;2022-11-21T05:07:08;0.45;;;0.40;;
31734;SDS011;18313;48.518;9.124;2022-11-21T05:09:54;1.45;;;0.40;;
31734;SDS011;18313;48.518;9.124;2022-11-21T05:12:39;0.40;;;0.40;;
31734;SDS011;18313;48.518;9.124;2022-11-21T05:15:44;1.95;;;0.60;;
31734;SDS011;18313;48.518;9.124;2022-11-21T05:18:29;0.60;;;0.60;;
31734;SDS011;18313;48.518;9.124;2022-11-21T05:21:15;1.00;;;0.50;;
31734;SDS011;18313;48.518;9.124;2022-11-21T05:24:00;2.63;;;1.02;;
31734;SDS011;18313;48.518;9.124;2022-11-21T05:26:46;1.42;;;0.75;;
31734;SDS011;18313;48.518;9.124;2022-11-21T05:29:31;0.40;;;0.40;;
31734;SDS011;18313;48.518;9.124;2022-11-21T05:32:17;1.70;;;0.90;;
31734;SDS011;18313;48.518;9.124;2022-11-21T05:35:02;1.27;;;0.60;;
31734;SDS011;18313;48.518;9.124;2022-11-21T05:37:53;0.88;;;0.40;;
31734;SDS011;18313;48.518;9.124;2022-11-21T05:40:39;0.88;;;0.50;;
31734;SDS011;18313;48.518;9.124;2022-11-21T05:43:25;0.82;;;0.40;;
31734;SDS011;18313;48.518;9.124;2022-11-21T05:46:29;0.50;;;0.50;;
31734;SDS011;18313;48.518;9.124;2022-11-21T05:49:15;0.57;;;0.40;;
31734;SDS011;18313;48.518;9.124;2022-11-21T05:52:00;0.47;;;0.40;;
31734;SDS011;18313;48.518;9.124;2022-11-21T05:54:46;0.40;;;0.40;;
31734;SDS011;18313;48.518;9.124;2022-11-21T05:57:31;0.90;;;0.50;;
31734;SDS011;18313;48.518;9.124;2022-11-21T06:00:17;0.82;;;0.55;;
31734;SDS011;18313;48.518;9.124;2022-11-21T06:03:04;1.23;;;0.60;;
31734;SDS011;18313;48.518;9.124;2022-11-21T06:06:09;3.10;;;0.50;;
31734;SDS011;18313;48.518;9.124;2022-11-21T06:08:56;0.77;;;0.47;;
31734;SDS011;18313;48.518;9.124;2022-11-21T06:11:42;3.20;;;0.47;;
31734;SDS011;18313;48.518;9.124;2022-11-21T06:14:28;1.25;;;0.55;;
31734;SDS011;18313;48.518;9.124;2022-11-21T06:17:14;0.40;;;0.40;;
31734;SDS011;18313;48.518;9.124;2022-11-21T06:19:59;1.75;;;0.70;;
31734;SDS011;18313;48.518;9.124;2022-11-21T06:22:45;0.60;;;0.60;;
31734;SDS011;18313;48.518;9.124;2022-11-21T06:25:31;1.42;;;0.50;;
31734;SDS011;18313;48.518;9.124;2022-11-21T06:28:17;0.75;;;0.57;;
31734;SDS011;18313;48.518;9.124;2022-11-21T06:31:06;1.20;;;0.70;;
31734;SDS011;18313;48.518;9.124;2022-11-21T06:33:54;1.15;;;0.93;;
31734;SDS011;18313;48.518;9.124;2022-11-21T06:36:41;1.55;;;0.82;;
31734;SDS011;18313;48.518;9.124;2022-11-21T06:39:28;3.78;;;0.95;;
31734;SDS011;18313;48.518;9.124;2022-11-21T06:42:14;6.55;;;1.33;;
31734;SDS011;18313;48.518;9.124;2022-11-21T06:44:59;2.55;;;1.10;;
31734;SDS011;18313;48.518;9.124;2022-11-21T06:47:45;1.63;;;0.77;;
31734;SDS011;18313;48.518;9.124;2022-11-21T06:50:30;12.18;;;7.32;;
31734;SDS011;18313;48.518;9.124;2022-11-21T06:53:16;2.70;;;1.83;;
31734;SDS011;18313;48.518;9.124;2022-11-21T06:56:02;3.72;;;1.42;;
31734;SDS011;18313;48.518;9.124;2022-11-21T06:58:48;2.20;;;1.00;;
31734;SDS011;18313;48.518;9.124;2022-11-21T07:01:33;1.85;;;0.90;;
31734;SDS011;18313;48.518;9.124;2022-11-21T07:04:19;2.05;;;0.85;;
31734;SDS011;18313;48.518;9.124;2022-11-21T07:07:05;4.28;;;0.90;;
31734;SDS011;18313;48.518;9.124;2022-11-21T07:09:51;1.75;;;1.05;;
31734;SDS011;18313;48.518;9.124;2022-11-21T07:12:36;3.92;;;1.10;;
31734;SDS011;18313;48.518;9.124;2022-11-21T07:15:40;2.30;;;1.17;;
31734;SDS011;18313;48.518;9.124;2022-11-21T07:18:26;3.80;;;1.17;;
31734;SDS011;18313;48.518;9.124;2022-11-21T07:21:12;4.90;;;1.27;;
31734;SDS011;18313;48.518;9.124;2022-11-21T07:23:57;2.80;;;1.17;;
31734;SDS011;18313;48.518;9.124;2022-11-21T07:26:43;4.68;;;1.30;;
31734;SDS011;18313;48.518;9.124;2022-11-21T07:29:28;5.10;;;1.40;;
31734;SDS011;18313;48.518;9.124;2022-11-21T07:32:14;12.07;;;1.88;;
31734;SDS011;18313;48.518;9.124;2022-11-21T07:34:59;7.63;;;1.40;;
31734;SDS011;18313;48.518;9.124;2022-11-21T07:37:45;3.45;;;0.90;;
31734;SDS011;18313;48.518;9.124;2022-11-21T07:40:30;4.55;;;1.00;;
31734;SDS011;18313;48.518;9.124;2022-11-21T07:43:19;4.40;;;1.10;;
31734;SDS011;18313;48.518;9.124;2022-11-21T07:46:04;3.90;;;1.00;;
31734;SDS011;18313;48.518;9.124;2022-11-21T07:48:49;5.15;;;1.10;;
31734;SDS011;18313;48.518;9.124;2022-11-21T07:51:35;4.07;;;1.25;;
31734;SDS011;18313;48.518;9.124;2022-11-21T07:54:20;5.88;;;1.20;;
31734;SDS011;18313;48.518;9.124;2022-11-21T07:57:06;8.77;;;1.15;;
31734;SDS011;18313;48.518;9.124;2022-11-21T07:59:51;5.20;;;1.00;;
31734;SDS011;18313;48.518;9.124;2022-11-21T08:02:37;6.03;;;1.08;;
31734;SDS011;18313;48.518;9.124;2022-11-21T08:05:23;5.65;;;1.10;;
31734;SDS011;18313;48.518;9.124;2022-11-21T08:08:09;6.03;;;1.10;;
31734;SDS011;18313;48.518;9.124;2022-11-21T08:10:56;4.60;;;1.08;;
31734;SDS011;18313;48.518;9.124;2022-11-21T08:13:41;2.83;;;0.90;;
31734;SDS011;18313;48.518;9.124;2022-11-21T08:16:26;6.35;;;1.77;;
31734;SDS011;18313;48.518;9.124;2022-11-21T08:19:14;7.03;;;1.17;;
31734;SDS011;18313;48.518;9.124;2022-11-21T08:21:59;9.13;;;1.23;;
31734;SDS011;18313;48.518;9.124;2022-11-21T08:24:45;3.50;;;1.20;;
31734;SDS011;18313;48.518;9.124;2022-11-21T08:27:31;5.97;;;1.10;;
31734;SDS011;18313;48.518;9.124;2022-11-21T08:30:16;10.23;;;1.35;;
31734;SDS011;18313;48.518;9.124;2022-11-21T08:33:02;6.07;;;1.17;;
31734;SDS011;18313;48.518;9.124;2022-11-21T08:35:48;12.32;;;4.43;;
31734;SDS011;18313;48.518;9.124;2022-11-21T08:38:34;6.05;;;1.10;;
31734;SDS011;18313;48.518;9.124;2022-11-21T08:41:20;3.47;;;1.45;;
31734;SDS011;18313;48.518;9.124;2022-11-21T08:44:24;5.15;;;1.00;;
31734;SDS011;18313;48.518;9.124;2022-11-21T08:47:10;4.07;;;1.05;;
31734;SDS011;18313;48.518;9.124;2022-11-21T08:49:55;4.80;;;1.10;;
31734;SDS011;18313;48.518;9.124;2022-11-21T08:52:40;3.92;;;1.08;;
31734;SDS011;18313;48.518;9.124;2022-11-21T08:55:26;5.57;;;1.50;;
31734;SDS011;18313;48.518;9.124;2022-11-21T08:58:12;8.90;;;1.30;;
31734;SDS011;18313;48.518;9.124;2022-11-21T09:00:58;6.13;;;1.38;;
31734;SDS011;18313;48.518;9.124;2022-11-21T09:03:44;5.85;;;1.27;;
31734;SDS011;18313;48.518;9.124;2022-11-21T09:06:29;6.43;;;1.30;;
31734;SDS011;18313;48.518;9.124;2022-11-21T09:09:15;6.88;;;1.38;;
31734;SDS011;18313;48.518;9.124;2022-11-21T09:12:08;5.93;;;1.17;;
31734;SDS011;18313;48.518;9.124;2022-11-21T09:14:54;7.03;;;1.33;;
31734;SDS011;18313;48.518;9.124;2022-11-21T09:18:01;5.82;;;1.38;;
31734;SDS011;18313;48.518;9.124;2022-11-21T09:20:47;6.10;;;1.00;;
31734;SDS011;18313;48.518;9.124;2022-11-21T09:23:33;3.65;;;0.88;;
31734;SDS011;18313;48.518;9.124;2022-11-21T09:26:18;4.72;;;1.00;;
31734;SDS011;18313;48.518;9.124;2022-11-21T09:29:04;7.88;;;0.98;;
31734;SDS011;18313;48.518;9.124;2022-11-21T09:31:49;4.38;;;0.80;;
31734;SDS011;18313;48.518;9.124;2022-11-21T09:34:35;7.45;;;1.60;;
31734;SDS011;18313;48.518;9.124;2022-11-21T09:37:20;5.53;;;0.90;;
31734;SDS011;18313;48.518;9.124;2022-11-21T09:40:08;6.30;;;1.23;;
31734;SDS011;18313;48.518;9.124;2022-11-21T09:46:14;4.10;;;0.85;;
31734;SDS011;18313;48.518;9.124;2022-11-21T09:49:04;6.30;;;1.27;;
31734;SDS011;18313;48.518;9.124;2022-11-21T09:51:54;5.03;;;0.98;;
31734;SDS011;18313;48.518;9.124;2022-11-21T09:54:46;5.57;;;1.30;;
31734;SDS011;18313;48.518;9.124;2022-11-21T09:57:34;4.03;;;0.90;;
31734;SDS011;18313;48.518;9.124;2022-11-21T10:00:21;5.00;;;1.20;;
31734;SDS011;18313;48.518;9.124;2022-11-21T10:03:08;4.28;;;1.20;;
31734;SDS011;18313;48.518;9.124;2022-11-21T10:06:00;4.45;;;1.10;;
31734;SDS011;18313;48.518;9.124;2022-11-21T10:09:01;6.72;;;1.10;;
31734;SDS011;18313;48.518;9.124;2022-11-21T10:12:06;8.05;;;1.50;;
31734;SDS011;18313;48.518;9.124;2022-11-21T10:24:48;16.60;;;1.50;;
31734;SDS011;18313;48.518;9.124;2022-11-21T10:30:43;6.45;;;1.17;;
31734;SDS011;18313;48.518;9.124;2022-11-21T10:33:30;4.07;;;1.20;;
31734;SDS011;18313;48.518;9.124;2022-11-21T10:36:23;4.78;;;1.38;;
31734;SDS011;18313;48.518;9.124;2022-11-21T10:39:26;6.95;;;1.15;;
31734;SDS011;18313;48.518;9.124;2022-11-21T10:45:20;4.78;;;1.10;;
31734;SDS011;18313;48.518;9.124;2022-11-21T10:48:07;5.57;;;0.90;;
31734;SDS011;18313;48.518;9.124;2022-11-21T10:51:04;6.53;;;1.08;;
31734;SDS011;18313;48.518;9.124;2022-11-21T10:54:05;7.95;;;1.17;;
31734;SDS011;18313;48.518;9.124;2022-11-21T10:57:12;6.80;;;1.30;;
31734;SDS011;18313;48.518;9.124;2022-11-21T11:05:52;4.47;;;0.90;;
31734;SDS011;18313;48.518;9.124;2022-11-21T11:08:50;6.35;;;1.13;;
31734;SDS011;18313;48.518;9.124;2022-11-21T11:11:36;3.80;;;1.02;;
31734;SDS011;18313;48.518;9.124;2022-11-21T11:14:31;6.20;;;0.90;;
31734;SDS011;18313;48.518;9.124;2022-11-21T11:17:30;4.65;;;1.20;;
31734;SDS011;18313;48.518;9.124;2022-11-21T11:20:28;4.55;;;1.13;;
31734;SDS011;18313;48.518;9.124;2022-11-21T11:23:26;8.52;;;1.42;;
31734;SDS011;18313;48.518;9.124;2022-11-21T11:26:30;6.22;;;1.25;;
31734;SDS011;18313;48.518;9.124;2022-11-21T11:29:17;6.68;;;1.40;;
31734;SDS011;18313;48.518;9.124;2022-11-21T11:32:14;5.85;;;1.13;;
31734;SDS011;18313;48.518;9.124;2022-11-21T11:37:58;4.97;;;1.10;;
31734;SDS011;18313;48.518;9.124;2022-11-21T11:40:47;4.90;;;1.25;;
31734;SDS011;18313;48.518;9.124;2022-11-21T11:43:49;3.97;;;1.10;;
31734;SDS011;18313;48.518;9.124;2022-11-21T11:47:04;7.78;;;1.20;;
31734;SDS011;18313;48.518;9.124;2022-11-21T11:50:17;5.63;;;1.30;;
31734;SDS011;18313;48.518;9.124;2022-11-21T11:56:15;5.50;;;0.93;;
31734;SDS011;18313;48.518;9.124;2022-11-21T12:02:27;6.88;;;1.17;;
31734;SDS011;18313;48.518;9.124;2022-11-21T12:05:26;3.47;;;0.93;;
31734;SDS011;18313;48.518;9.124;2022-11-21T12:08:20;5.63;;;1.33;;
31734;SDS011;18313;48.518;9.124;2022-11-21T12:21:08;6.47;;;1.42;;
31734;SDS011;18313;48.518;9.124;2022-11-21T12:24:01;7.28;;;1.10;;
31734;SDS011;18313;48.518;9.124;2022-11-21T12:27:02;8.10;;;1.77;;
31734;SDS011;18313;48.518;9.124;2022-11-21T12:33:20;5.22;;;0.90;;
31734;SDS011;18313;48.518;9.124;2022-11-21T12:45:38;5.90;;;1.20;;
31734;SDS011;18313;48.518;9.124;2022-11-21T12:48:43;6.67;;;1.40;;
31734;SDS011;18313;48.518;9.124;2022-11-21T12:52:13;5.03;;;1.38;;
31734;SDS011;18313;48.518;9.124;2022-11-21T12:58:32;4.65;;;1.10;;
31734;SDS011;18313;48.518;9.124;2022-11-21T13:04:42;6.05;;;1.17;;
31734;SDS011;18313;48.518;9.124;2022-11-21T13:07:30;5.60;;;1.20;;
31734;SDS011;18313;48.518;9.124;2022-11-21T13:10:17;4.95;;;1.02;;
31734;SDS011;18313;48.518;9.124;2022-11-21T13:13:25;4.68;;;1.00;;
31734;SDS011;18313;48.518;9.124;2022-11-21T13:16:21;4.43;;;0.90;;
31734;SDS011;18313;48.518;9.124;2022-11-21T13:19:25;4.47;;;1.02;;
31734;SDS011;18313;48.518;9.124;2022-11-21T13:31:04;5.75;;;1.10;;
31734;SDS011;18313;48.518;9.124;2022-11-21T13:37:57;3.75;;;1.00;;
31734;SDS011;18313;48.518;9.124;2022-11-21T13:40:43;4.53;;;0.95;;
31734;SDS011;18313;48.518;9.124;2022-11-21T13:43:49;4.57;;;1.00;;
31734;SDS011;18313;48.518;9.124;2022-11-21T13:49:47;5.28;;;1.02;;
31734;SDS011;18313;48.518;9.124;2022-11-21T13:52:43;5.70;;;1.20;;
31734;SDS011;18313;48.518;9.124;2022-11-21T13:55:38;5.15;;;1.30;;
31734;SDS011;18313;48.518;9.124;2022-11-21T14:07:44;4.22;;;1.00;;
31734;SDS011;18313;48.518;9.124;2022-11-21T14:10:32;4.20;;;1.10;;
31734;SDS011;18313;48.518;9.124;2022-11-21T14:13:26;4.53;;;1.08;;
31734;SDS011;18313;48.518;9.124;2022-11-21T14:16:31;4.90;;;1.20;;
31734;SDS011;18313;48.518;9.124;2022-11-21T14:19:24;4.60;;;1.00;;
31734;SDS011;18313;48.518;9.124;2022-11-21T14:22:31;5.82;;;1.10;;
31734;SDS011;18313;48.518;9.124;2022-11-21T14:25:32;3.35;;;0.88;;
31734;SDS011;18313;48.518;9.124;2022-11-21T14:28:22;9.15;;;1.20;;
31734;SDS011;18313;48.518;9.124;2022-11-21T14:31:11;6.85;;;1.17;;
31734;SDS011;18313;48.518;9.124;2022-11-21T14:33:57;4.88;;;1.00;;
31734;SDS011;18313;48.518;9.124;2022-11-21T14:36:43;8.57;;;1.35;;
31734;SDS011;18313;48.518;9.124;2022-11-21T14:39:29;4.75;;;1.20;;
31734;SDS011;18313;48.518;9.124;2022-11-21T14:42:32;3.58;;;1.00;;
31734;SDS011;18313;48.518;9.124;2022-11-21T14:45:20;4.68;;;1.40;;
31734;SDS011;18313;48.518;9.124;2022-11-21T14:48:10;5.80;;;1.30;;
31734;SDS011;18313;48.518;9.124;2022-11-21T14:50:57;7.32;;;1.48;;
31734;SDS011;18313;48.518;9.124;2022-11-21T14:53:45;5.65;;;1.25;;
31734;SDS011;18313;48.518;9.124;2022-11-21T14:56:33;4.65;;;0.98;;
31734;SDS011;18313;48.518;9.124;2022-11-21T14:59:23;2.58;;;0.90;;
31734;SDS011;18313;48.518;9.124;2022-11-21T15:02:23;2.55;;;0.90;;
31734;SDS011;18313;48.518;9.124;2022-11-21T15:05:12;6.57;;;1.15;;
31734;SDS011;18313;48.518;9.124;2022-11-21T15:08:22;4.47;;;1.27;;
31734;SDS011;18313;48.518;9.124;2022-11-21T15:11:33;4.97;;;1.23;;
31734;SDS011;18313;48.518;9.124;2022-11-21T15:17:18;5.50;;;1.35;;
31734;SDS011;18313;48.518;9.124;2022-11-21T15:22:58;7.30;;;1.50;;
31734;SDS011;18313;48.518;9.124;2022-11-21T15:25:45;6.32;;;1.30;;
31734;SDS011;18313;48.518;9.124;2022-11-21T15:28:31;6.13;;;1.38;;
31734;SDS011;18313;48.518;9.124;2022-11-21T15:31:17;6.10;;;1.60;;
31734;SDS011;18313;48.518;9.124;2022-11-21T15:34:04;6.15;;;1.80;;
31734;SDS011;18313;48.518;9.124;2022-11-21T15:37:14;9.25;;;1.70;;
31734;SDS011;18313;48.518;9.124;2022-11-21T15:40:01;6.57;;;1.80;;
31734;SDS011;18313;48.518;9.124;2022-11-21T15:42:48;6.97;;;1.77;;
31734;SDS011;18313;48.518;9.124;2022-11-21T15:45:34;6.00;;;1.65;;
31734;SDS011;18313;48.518;9.124;2022-11-21T15:48:20;6.47;;;1.50;;
31734;SDS011;18313;48.518;9.124;2022-11-21T15:51:08;6.00;;;1.73;;
31734;SDS011;18313;48.518;9.124;2022-11-21T15:53:54;5.45;;;1.75;;
31734;SDS011;18313;48.518;9.124;2022-11-21T15:56:40;6.32;;;1.65;;
31734;SDS011;18313;48.518;9.124;2022-11-21T15:59:25;11.38;;;1.77;;
31734;SDS011;18313;48.518;9.124;2022-11-21T16:02:12;7.63;;;1.50;;
31734;SDS011;18313;48.518;9.124;2022-11-21T16:04:58;8.25;;;2.58;;
31734;SDS011;18313;48.518;9.124;2022-11-21T16:07:44;6.28;;;1.73;;
31734;SDS011;18313;48.518;9.124;2022-11-21T16:10:30;10.30;;;1.77;;
31734;SDS011;18313;48.518;9.124;2022-11-21T16:13:16;5.07;;;1.63;;
31734;SDS011;18313;48.518;9.124;2022-11-21T16:16:01;7.13;;;1.80;;
31734;SDS011;18313;48.518;9.124;2022-11-21T16:18:47;6.97;;;2.25;;
31734;SDS011;18313;48.518;9.124;2022-11-21T16:21:34;7.00;;;2.20;;
31734;SDS011;18313;48.518;9.124;2022-11-21T16:24:20;11.80;;;3.63;;
31734;SDS011;18313;48.518;9.124;2022-11-21T16:27:06;7.93;;;2.33;;
31734;SDS011;18313;48.518;9.124;2022-11-21T16:29:51;5.60;;;2.08;;
31734;SDS011;18313;48.518;9.124;2022-11-21T16:32:37;11.77;;;2.53;;
31734;SDS011;18313;48.518;9.124;2022-11-21T16:35:22;7.05;;;2.25;;
31734;SDS011;18313;48.518;9.124;2022-11-21T16:38:11;10.93;;;2.95;;
31734;SDS011;18313;48.518;9.124;2022-11-21T16:41:01;6.10;;;2.50;;
31734;SDS011;18313;48.518;9.124;2022-11-21T16:43:49;7.85;;;2.83;;
31734;SDS011;18313;48.518;9.124;2022-11-21T16:46:37;6.13;;;2.00;;
31734;SDS011;18313;48.518;9.124;2022-11-21T16:49:30;6.88;;;2.30;;
31734;SDS011;18313;48.518;9.124;2022-11-21T16:52:16;4.65;;;2.00;;
31734;SDS011;18313;48.518;9.124;2022-11-21T16:55:02;8.50;;;2.00;;
31734;SDS011;18313;48.518;9.124;2022-11-21T16:57:48;6.70;;;2.25;;
31734;SDS011;18313;48.518;9.124;2022-11-21T17:00:33;8.73;;;3.15;;
31734;SDS011;18313;48.518;9.124;2022-11-21T17:03:19;5.32;;;2.17;;
31734;SDS011;18313;48.518;9.124;2022-11-21T17:06:04;8.25;;;2.50;;
31734;SDS011;18313;48.518;9.124;2022-11-21T17:08:51;7.82;;;2.30;;
31734;SDS011;18313;48.518;9.124;2022-11-21T17:11:37;8.40;;;2.55;;
31734;SDS011;18313;48.518;9.124;2022-11-21T17:14:22;8.85;;;2.55;;
31734;SDS011;18313;48.518;9.124;2022-11-21T17:17:07;6.90;;;3.30;;
31734;SDS011;18313;48.518;9.124;2022-11-21T17:19:53;7.47;;;3.33;;
31734;SDS011;18313;48.518;9.124;2022-11-21T17:22:39;8.05;;;3.30;;
31734;SDS011;18313;48.518;9.124;2022-11-21T17:25:25;9.88;;;4.15;;
31734;SDS011;18313;48.518;9.124;2022-11-21T17:28:10;10.15;;;2.95;;
31734;SDS011;18313;48.518;9.124;2022-11-21T17:30:55;8.05;;;2.80;;
31734;SDS011;18313;48.518;9.124;2022-11-21T17:33:41;13.45;;;5.70;;
31734;SDS011;18313;48.518;9.124;2022-11-21T17:36:28;9.13;;;4.60;;
31734;SDS011;18313;48.518;9.124;2022-11-21T17:39:14;7.13;;;2.53;;
31734;SDS011;18313;48.518;9.124;2022-11-21T17:42:03;8.45;;;2.17;;
31734;SDS011;18313;48.518;9.124;2022-11-21T17:44:48;5.78;;;1.90;;
31734;SDS011;18313;48.518;9.124;2022-11-21T17:47:34;9.60;;;1.90;;
31734;SDS011;18313;48.518;9.124;2022-11-21T17:50:19;8.43;;;1.95;;
31734;SDS011;18313;48.518;9.124;2022-11-21T17:53:05;6.90;;;2.35;;
31734;SDS011;18313;48.518;9.124;2022-11-21T17:55:55;11.02;;;3.40;;
31734;SDS011;18313;48.518;9.124;2022-11-21T17:58:43;7.32;;;2.22;;
31734;SDS011;18313;48.518;9.124;2022-11-21T18:01:28;5.68;;;1.70;;
31734;SDS011;18313;48.518;9.124;2022-11-21T18:04:14;5.88;;;1.73;;
31734;SDS011;18313;48.518;9.124;2022-11-21T18:07:01;8.27;;;1.83;;
31734;SDS011;18313;48.518;9.124;2022-11-21T18:09:47;6.25;;;1.75;;
31734;SDS011;18313;48.518;9.124;2022-11-21T18:12:32;6.50;;;1.60;;
31734;SDS011;18313;48.518;9.124;2022-11-21T18:15:18;9.07;;;2.72;;
31734;SDS011;18313;48.518;9.124;2022-11-21T18:18:03;12.52;;;4.53;;
31734;SDS011;18313;48.518;9.124;2022-11-21T18:20:49;9.57;;;3.03;;
31734;SDS011;18313;48.518;9.124;2022-11-21T18:23:35;8.13;;;2.85;;
31734;SDS011;18313;48.518;9.124;2022-11-21T18:26:25;8.30;;;2.90;;
31734;SDS011;18313;48.518;9.124;2022-11-21T18:29:12;15.93;;;5.38;;
31734;SDS011;18313;48.518;9.124;2022-11-21T18:32:18;13.77;;;4.85;;
31734;SDS011;18313;48.518;9.124;2022-11-21T18:35:03;12.93;;;3.55;;
31734;SDS011;18313;48.518;9.124;2022-11-21T18:37:49;21.67;;;8.55;;
31734;SDS011;18313;48.518;9.124;2022-11-21T18:40:34;14.88;;;4.78;;
31734;SDS011;18313;48.518;9.124;2022-11-21T18:43:20;23.35;;;8.77;;